createdAt,value
2022-11-13T00:04:08.563Z,22.07
2022-11-13T00:09:12.869Z,22.67
2022-11-13T00:14:14.123Z,18.98
2022-11-13T00:19:15.368Z,16.93
2022-11-13T00:24:16.583Z,17.13
2022-11-13T00:29:18.051Z,19.13
2022-11-13T00:34:45.977Z,16.20
2022-11-13T00:39:40.489Z,14.45
2022-11-13T00:44:41.729Z,15.23
2022-11-13T00:49:43.014Z,16.50
2022-11-13T00:54:44.245Z,16.67
2022-11-13T00:59:45.489Z,14.23
2022-11-13T01:04:46.767Z,16.00
2022-11-13T01:09:50.999Z,18.53
2022-11-13T01:14:52.219Z,15.90
2022-11-13T01:19:53.441Z,15.10
2022-11-13T01:24:54.719Z,17.27
2022-11-13T01:29:55.989Z,21.77
2022-11-13T01:34:57.225Z,15.27
2022-11-13T01:39:58.482Z,15.98
2022-11-13T01:45:00.847Z,15.63
2022-11-13T01:50:02.296Z,14.90
2022-11-13T01:55:13.900Z,14.50
2022-11-13T02:00:15.234Z,17.60
2022-11-13T02:05:17.069Z,15.23
2022-11-13T02:10:18.527Z,22.67
2022-11-13T02:15:23.446Z,11.27
2022-11-13T02:20:35.122Z,13.05
2022-11-13T02:25:37.592Z,10.87
2022-11-13T02:30:38.819Z,12.98
2022-11-13T02:35:40.053Z,12.27
2022-11-13T02:40:41.313Z,11.25
2022-11-13T02:45:42.613Z,11.45
2022-11-13T02:50:43.968Z,16.37
2022-11-13T02:55:45.213Z,17.00
2022-11-13T03:00:46.504Z,14.57
2022-11-13T03:05:48.839Z,12.68
2022-11-13T03:10:50.136Z,15.35
2022-11-13T03:15:51.349Z,14.80
2022-11-13T03:20:54.012Z,15.10
2022-11-13T03:25:55.310Z,13.80
2022-11-13T03:30:56.713Z,13.52
2022-11-13T03:35:58.160Z,14.73
2022-11-13T03:40:59.459Z,17.63
2022-11-13T03:46:00.719Z,16.23
2022-11-13T03:51:02.031Z,16.33
2022-11-13T03:56:03.333Z,15.80
2022-11-13T04:01:04.570Z,16.55
2022-11-13T04:06:05.998Z,17.63
2022-11-13T04:11:08.060Z,13.85
2022-11-13T04:16:09.279Z,16.33
2022-11-13T04:21:10.540Z,15.10
2022-11-13T04:26:11.777Z,16.05
2022-11-13T04:31:13.043Z,15.63
2022-11-13T04:36:14.352Z,13.00
2022-11-13T04:41:34.307Z,16.37
2022-11-13T04:46:35.583Z,17.75
2022-11-13T04:51:36.812Z,18.45
2022-11-13T04:56:38.069Z,15.33
2022-11-13T05:01:39.353Z,15.77
2022-11-13T05:06:40.892Z,17.30
2022-11-13T05:11:42.173Z,16.30
2022-11-13T05:16:43.398Z,19.17
2022-11-13T05:21:44.756Z,13.87
2022-11-13T05:26:45.993Z,16.65
2022-11-13T05:31:47.628Z,14.57
2022-11-13T05:36:48.852Z,15.25
2022-11-13T05:41:50.083Z,12.20
2022-11-13T05:46:51.323Z,13.10
2022-11-13T05:51:54.035Z,11.43
2022-11-13T05:56:55.267Z,12.13
2022-11-13T06:01:56.585Z,11.55
2022-11-13T06:06:57.905Z,15.48
2022-11-13T06:11:59.188Z,12.20
2022-11-13T06:17:00.426Z,13.15
2022-11-13T06:22:01.680Z,19.30
2022-11-13T06:27:02.936Z,12.35
2022-11-13T06:32:04.299Z,14.98
2022-11-13T06:37:05.532Z,15.40
2022-11-13T06:42:06.773Z,12.07
2022-11-13T06:47:09.473Z,12.40
2022-11-13T06:52:10.729Z,17.67
2022-11-13T06:57:11.960Z,11.82
2022-11-13T07:02:13.188Z,13.53
2022-11-13T07:07:14.429Z,13.05
2022-11-13T07:12:15.711Z,12.43
2022-11-13T07:17:16.977Z,14.00
2022-11-13T07:22:18.257Z,17.17
2022-11-13T07:27:19.496Z,13.80
2022-11-13T07:32:20.751Z,14.13
2022-11-13T07:37:21.971Z,12.90
2022-11-13T07:42:23.271Z,12.20
2022-11-13T07:47:24.511Z,12.93
2022-11-13T07:52:25.758Z,11.33
2022-11-13T07:57:27.202Z,10.68
2022-11-13T08:02:28.564Z,12.43
2022-11-13T08:07:29.800Z,11.23
2022-11-13T08:12:31.078Z,11.77
2022-11-13T08:17:32.306Z,11.93
2022-11-13T08:22:33.635Z,11.68
2022-11-13T08:27:34.866Z,11.50
2022-11-13T08:32:36.087Z,11.60
2022-11-13T08:37:37.305Z,12.18
2022-11-13T08:42:38.534Z,12.57
2022-11-13T08:47:39.823Z,14.05
2022-11-13T08:52:41.061Z,11.43
2022-11-13T08:57:42.345Z,11.63
2022-11-13T09:02:43.805Z,10.73
2022-11-13T09:07:45.038Z,11.07
2022-11-13T09:12:46.266Z,11.90
2022-11-13T09:17:47.480Z,10.57
2022-11-13T09:22:48.705Z,11.80
2022-11-13T09:27:54.576Z,11.98
2022-11-13T09:32:57.140Z,11.27
2022-11-13T09:37:58.373Z,13.15
2022-11-13T09:43:00.560Z,12.10
2022-11-13T09:48:22.055Z,12.00
2022-11-13T09:53:25.508Z,10.68
2022-11-13T09:58:53.224Z,15.80
2022-11-13T10:04:04.221Z,12.82
2022-11-13T10:09:24.730Z,11.77
2022-11-13T10:14:31.517Z,12.25
2022-11-13T10:19:46.026Z,12.63
2022-11-13T10:24:50.297Z,12.23
2022-11-13T10:29:51.557Z,12.85
2022-11-13T10:34:58.382Z,13.13
2022-11-13T10:39:59.609Z,22.25
2022-11-13T10:45:00.965Z,11.55
2022-11-13T10:50:12.202Z,12.90
2022-11-13T10:55:37.585Z,12.57
2022-11-13T11:00:40.546Z,11.47
2022-11-13T11:05:51.608Z,10.57
2022-11-13T11:11:16.506Z,14.52
2022-11-13T11:16:24.523Z,13.37
2022-11-13T11:21:27.323Z,10.93
2022-11-13T11:26:31.349Z,11.87
2022-11-13T11:31:35.563Z,11.68
2022-11-13T11:36:41.628Z,12.63
2022-11-13T11:41:45.644Z,13.07
2022-11-13T11:46:47.042Z,14.45
2022-11-13T11:52:11.618Z,13.07
2022-11-13T11:57:39.524Z,17.10
2022-11-13T12:02:46.916Z,14.35
2022-11-13T12:07:54.399Z,9.77
2022-11-13T12:13:14.421Z,10.38
2022-11-13T12:18:25.093Z,10.00
2022-11-13T12:23:44.875Z,10.05
2022-11-13T12:28:52.206Z,9.18
2022-11-13T12:34:02.680Z,10.50
2022-11-13T12:39:22.831Z,9.32
2022-11-13T12:44:28.765Z,10.37
2022-11-13T12:49:32.042Z,10.43
2022-11-13T12:54:34.948Z,12.52
2022-11-13T12:59:37.448Z,9.93
2022-11-13T13:04:57.280Z,9.43
2022-11-13T13:09:58.875Z,10.20
2022-11-13T13:15:03.021Z,9.73
2022-11-13T13:20:06.587Z,9.27
2022-11-13T13:25:23.701Z,10.60
2022-11-13T13:30:26.365Z,10.02
2022-11-13T13:35:31.064Z,9.03
2022-11-13T13:40:41.238Z,10.27
2022-11-13T13:45:47.995Z,10.65
2022-11-13T13:50:49.993Z,12.93
2022-11-13T13:55:52.738Z,12.27
2022-11-13T14:01:17.097Z,11.10
2022-11-13T14:06:22.420Z,11.13
2022-11-13T14:11:29.672Z,10.35
2022-11-13T14:16:31.189Z,13.37
2022-11-13T14:21:32.603Z,9.02
2022-11-13T14:26:34.160Z,9.87
2022-11-13T14:31:36.149Z,9.85
2022-11-13T14:36:38.091Z,16.45
2022-11-13T14:42:08.758Z,10.27
2022-11-13T14:47:29.992Z,12.95
2022-11-13T14:52:31.456Z,12.60
2022-11-13T14:57:32.692Z,9.37
2022-11-13T15:02:33.958Z,10.65
2022-11-13T15:07:39.640Z,10.43
2022-11-13T15:12:41.120Z,11.37
2022-11-13T15:17:45.670Z,17.70
2022-11-13T15:22:46.965Z,13.67
2022-11-13T15:27:48.640Z,15.88
2022-11-13T15:32:53.739Z,18.77
2022-11-13T15:37:55.515Z,15.53
2022-11-13T15:42:58.950Z,11.75
2022-11-13T15:48:00.219Z,22.60
2022-11-13T15:53:05.529Z,14.10
2022-11-13T15:58:11.670Z,12.48
2022-11-13T16:03:13.018Z,20.00
2022-11-13T16:08:15.291Z,13.63
2022-11-13T16:13:16.640Z,16.43
2022-11-13T16:18:26.246Z,16.38
2022-11-13T16:23:27.838Z,12.50
2022-11-13T16:28:31.531Z,13.73
2022-11-13T16:33:35.595Z,16.90
2022-11-13T16:38:36.846Z,15.80
2022-11-13T16:43:38.258Z,17.10
2022-11-13T16:48:41.738Z,20.48
2022-11-13T16:53:43.213Z,22.23
2022-11-13T16:58:44.448Z,18.38
2022-11-13T17:03:45.682Z,33.67
2022-11-13T17:08:48.712Z,18.05
2022-11-13T17:13:53.370Z,21.08
2022-11-13T17:18:54.983Z,20.37
2022-11-13T17:23:57.083Z,19.42
2022-11-13T17:28:59.793Z,16.77
2022-11-13T17:34:01.110Z,17.45
2022-11-13T17:39:02.445Z,15.00
2022-11-13T17:44:03.988Z,16.40
2022-11-13T17:49:05.270Z,20.52
2022-11-13T17:54:06.555Z,18.03
2022-11-13T17:59:08.365Z,18.98
2022-11-13T18:04:09.599Z,19.85
2022-11-13T18:09:11.014Z,26.63
2022-11-13T18:14:12.292Z,25.40
2022-11-13T18:19:13.576Z,22.83
2022-11-13T18:24:16.604Z,28.38
2022-11-13T18:29:17.897Z,36.83
2022-11-13T18:34:19.155Z,29.87
2022-11-13T18:39:20.530Z,30.23
2022-11-13T18:44:21.862Z,25.67
2022-11-13T18:49:23.170Z,30.65
2022-11-13T18:54:24.433Z,34.05
2022-11-13T18:59:25.694Z,37.40
2022-11-13T19:04:26.982Z,25.02
2022-11-13T19:09:28.338Z,25.23
2022-11-13T19:14:29.599Z,26.48
2022-11-13T19:19:30.842Z,25.83
2022-11-13T19:24:32.379Z,27.70
2022-11-13T19:29:33.700Z,34.30
2022-11-13T19:34:35.000Z,28.13
2022-11-13T19:39:36.251Z,71.90
2022-11-13T19:44:37.521Z,35.40
2022-11-13T19:49:39.701Z,46.27
2022-11-13T19:54:41.970Z,54.00
2022-11-13T19:59:43.312Z,27.57
2022-11-13T20:04:44.653Z,34.72
2022-11-13T20:09:45.953Z,43.78
2022-11-13T20:14:47.297Z,52.23
2022-11-13T20:19:48.975Z,31.85
2022-11-13T20:24:50.254Z,38.13
2022-11-13T20:29:51.502Z,24.40
2022-11-13T20:34:52.924Z,24.17
2022-11-13T20:39:54.179Z,46.87
2022-11-13T20:44:59.984Z,71.30
2022-11-13T20:50:02.471Z,46.27
2022-11-13T20:55:03.880Z,49.65
2022-11-13T21:00:05.420Z,38.88
2022-11-13T21:05:06.907Z,32.00
2022-11-13T21:10:08.331Z,32.60
2022-11-13T21:15:09.795Z,30.47
2022-11-13T21:20:11.307Z,29.23
2022-11-13T21:25:12.585Z,28.73
2022-11-13T21:30:14.092Z,31.90
2022-11-13T21:35:18.552Z,29.65
2022-11-13T21:40:22.741Z,29.77
2022-11-13T21:45:23.981Z,34.38
2022-11-13T21:50:25.267Z,25.60
2022-11-13T21:55:26.503Z,27.08
2022-11-13T22:00:27.794Z,27.30
2022-11-13T22:05:29.028Z,27.23
2022-11-13T22:10:30.285Z,27.90
2022-11-13T22:15:31.504Z,29.88
2022-11-13T22:20:33.395Z,23.25
2022-11-13T22:25:34.633Z,26.77
2022-11-13T22:30:35.876Z,24.30
2022-11-13T22:35:37.141Z,24.25
2022-11-13T22:40:38.569Z,29.60
2022-11-13T22:45:39.839Z,25.50
2022-11-13T22:50:41.087Z,32.97
2022-11-13T22:55:42.347Z,28.87
2022-11-13T23:00:43.613Z,38.58
2022-11-13T23:05:44.893Z,29.88
2022-11-13T23:10:51.833Z,32.65
2022-11-13T23:15:53.461Z,29.70
2022-11-13T23:20:54.687Z,32.70
2022-11-13T23:25:55.976Z,25.95
2022-11-13T23:30:57.295Z,29.13
2022-11-13T23:35:58.656Z,24.30
2022-11-13T23:41:00.854Z,21.95
2022-11-13T23:46:02.211Z,21.87
2022-11-13T23:51:03.772Z,27.08
2022-11-13T23:56:05.259Z,24.00
